createdAt,value
2023-01-28T00:00:54.928Z,99090.34
2023-01-28T00:03:26.605Z,99083.41
2023-01-28T00:06:03.182Z,99092.94
2023-01-28T00:08:30.736Z,99092.94
2023-01-28T00:11:01.512Z,99092.94
2023-01-28T00:13:29.789Z,99084.31
2023-01-28T00:15:59.158Z,99086.00
2023-01-28T00:18:27.895Z,99095.50
2023-01-28T00:21:01.944Z,99093.78
2023-01-28T00:23:31.374Z,99095.53
2023-01-28T00:25:59.451Z,99097.22
2023-01-28T00:28:26.727Z,99091.22
2023-01-28T00:30:53.768Z,99093.81
2023-01-28T00:33:20.989Z,99092.06
2023-01-28T00:35:48.050Z,99095.50
2023-01-28T00:38:15.218Z,99096.38
2023-01-28T00:40:42.158Z,99090.34
2023-01-28T00:43:09.334Z,99087.75
2023-01-28T00:45:36.292Z,99092.06
2023-01-28T00:48:04.455Z,99089.47
2023-01-28T00:50:31.396Z,99088.59
2023-01-28T00:52:58.620Z,99092.06
2023-01-28T00:55:25.540Z,99100.69
2023-01-28T00:57:52.679Z,99100.69
2023-01-28T01:00:21.886Z,99097.25
2023-01-28T01:02:49.165Z,99095.50
2023-01-28T01:05:16.555Z,99094.66
2023-01-28T01:07:44.195Z,99107.59
2023-01-28T01:10:14.213Z,99105.88
2023-01-28T01:12:41.630Z,99097.22
2023-01-28T01:15:10.560Z,99098.09
2023-01-28T01:17:42.659Z,99102.41
2023-01-28T01:20:16.301Z,99108.47
2023-01-28T01:22:43.485Z,99109.31
2023-01-28T01:25:12.843Z,99110.19
2023-01-28T01:27:40.615Z,99110.19
2023-01-28T01:30:08.591Z,99108.47
2023-01-28T01:32:36.311Z,99105.00
2023-01-28T01:35:08.223Z,99104.13
2023-01-28T01:37:36.083Z,99105.00
2023-01-28T01:40:05.054Z,99106.75
2023-01-28T01:42:33.483Z,99116.22
2023-01-28T01:45:12.496Z,99111.91
2023-01-28T01:47:47.501Z,99105.00
2023-01-28T01:50:28.969Z,99113.63
2023-01-28T01:53:02.236Z,99111.91
2023-01-28T01:55:35.758Z,99107.56
2023-01-28T01:58:09.019Z,99104.13
2023-01-28T02:00:36.061Z,99100.72
2023-01-28T02:03:03.589Z,99103.31
2023-01-28T02:05:30.440Z,99105.00
2023-01-28T02:08:17.643Z,99098.97
2023-01-28T02:10:45.555Z,99102.41
2023-01-28T02:13:14.449Z,99099.84
2023-01-28T02:15:41.917Z,99106.75
2023-01-28T02:18:09.235Z,99106.72
2023-01-28T02:20:57.577Z,99105.88
2023-01-28T02:23:30.308Z,99110.19
2023-01-28T02:26:02.810Z,99105.88
2023-01-28T02:28:37.276Z,99109.34
2023-01-28T02:31:09.232Z,99098.97
2023-01-28T02:34:04.967Z,99108.47
2023-01-28T02:36:56.886Z,99113.66
2023-01-28T02:39:29.157Z,99113.66
2023-01-28T02:42:09.979Z,99106.72
2023-01-28T02:44:37.108Z,99113.66
2023-01-28T02:47:29.437Z,99114.50
2023-01-28T02:50:10.308Z,99107.59
2023-01-28T02:53:14.131Z,99110.19
2023-01-28T02:55:47.312Z,99112.78
2023-01-28T02:58:32.183Z,99104.16
2023-01-28T03:01:19.121Z,99109.34
2023-01-28T03:04:07.928Z,99101.56
2023-01-28T03:06:43.950Z,99105.00
2023-01-28T03:09:23.282Z,99100.72
2023-01-28T03:12:15.474Z,99105.00
2023-01-28T03:15:04.790Z,99109.31
2023-01-28T03:18:00.754Z,99097.22
2023-01-28T03:20:54.016Z,99096.38
2023-01-28T03:23:46.944Z,99096.38
2023-01-28T03:26:34.234Z,99100.69
2023-01-28T03:29:27.653Z,99104.13
2023-01-28T03:32:14.826Z,99107.59
2023-01-28T03:35:02.067Z,99101.53
2023-01-28T03:37:30.122Z,99101.50
2023-01-28T03:40:02.305Z,99099.78
2023-01-28T03:42:31.399Z,99098.09
2023-01-28T03:44:59.197Z,99100.66
2023-01-28T03:47:30.794Z,99106.69
2023-01-28T03:50:01.693Z,99104.13
2023-01-28T03:52:31.137Z,99102.41
2023-01-28T03:54:58.386Z,99101.53
2023-01-28T03:57:27.964Z,99101.53
2023-01-28T03:59:55.311Z,99110.16
2023-01-28T04:02:23.445Z,99111.00
2023-01-28T04:04:50.679Z,99108.41
2023-01-28T04:07:18.039Z,99108.44
2023-01-28T04:09:45.268Z,99107.56
2023-01-28T04:12:12.513Z,99110.13
2023-01-28T04:14:40.363Z,99113.56
2023-01-28T04:17:10.815Z,99115.31
2023-01-28T04:19:38.118Z,99117.03
2023-01-28T04:22:07.507Z,99132.59
2023-01-28T04:24:34.883Z,99126.53
2023-01-28T04:27:01.792Z,99129.13
2023-01-28T04:29:28.932Z,99135.16
2023-01-28T04:31:56.435Z,99136.03
2023-01-28T04:34:23.626Z,99131.72
2023-01-28T04:36:50.609Z,99133.47
2023-01-28T04:39:17.899Z,99130.88
2023-01-28T04:41:44.715Z,99133.44
2023-01-28T04:44:12.025Z,99135.16
2023-01-28T04:46:39.028Z,99133.47
2023-01-28T04:49:06.257Z,99137.75
2023-01-28T04:51:33.224Z,99137.75
2023-01-28T04:54:00.529Z,99126.53
2023-01-28T04:56:27.454Z,99142.94
2023-01-28T04:58:54.659Z,99131.72
2023-01-28T05:01:21.588Z,99136.03
2023-01-28T05:03:48.755Z,99139.47
2023-01-28T05:06:15.682Z,99144.63
2023-01-28T05:08:42.921Z,99136.00
2023-01-28T05:11:09.874Z,99144.66
2023-01-28T05:13:37.050Z,99141.19
2023-01-28T05:16:04.264Z,99139.44
2023-01-28T05:18:31.609Z,99137.72
2023-01-28T05:20:58.965Z,99142.91
2023-01-28T05:23:26.105Z,99147.22
2023-01-28T05:25:53.008Z,99142.03
2023-01-28T05:28:20.181Z,99147.22
2023-01-28T05:30:47.136Z,99152.38
2023-01-28T05:33:14.335Z,99148.09
2023-01-28T05:35:42.673Z,99142.03
2023-01-28T05:38:10.263Z,99149.78
2023-01-28T05:40:37.082Z,99152.41
2023-01-28T05:43:04.282Z,99151.53
2023-01-28T05:45:31.140Z,99148.97
2023-01-28T05:47:58.348Z,99155.00
2023-01-28T05:50:25.208Z,99155.84
2023-01-28T05:52:52.363Z,99150.66
2023-01-28T05:55:20.857Z,99158.44
2023-01-28T05:57:48.372Z,99161.00
2023-01-28T06:00:16.838Z,99159.28
2023-01-28T06:02:44.222Z,99162.72
2023-01-28T06:05:11.308Z,99162.69
2023-01-28T06:07:38.547Z,99164.44
2023-01-28T06:10:05.979Z,99169.59
2023-01-28T06:12:33.198Z,99171.34
2023-01-28T06:15:00.112Z,99173.94
2023-01-28T06:17:27.312Z,99174.78
2023-01-28T06:19:54.201Z,99179.97
2023-01-28T06:22:21.743Z,99173.03
2023-01-28T06:24:48.669Z,99177.38
2023-01-28T06:27:15.835Z,99185.16
2023-01-28T06:29:42.775Z,99190.31
2023-01-28T06:32:10.019Z,99189.47
2023-01-28T06:34:36.931Z,99189.50
2023-01-28T06:37:04.378Z,99186.91
2023-01-28T06:39:34.565Z,99192.94
2023-01-28T06:42:01.736Z,99191.22
2023-01-28T06:44:28.625Z,99190.34
2023-01-28T06:46:56.024Z,99193.84
2023-01-28T06:49:22.984Z,99194.69
2023-01-28T06:51:50.408Z,99202.47
2023-01-28T06:54:17.366Z,99197.31
2023-01-28T06:56:44.605Z,99205.97
2023-01-28T06:59:11.539Z,99208.53
2023-01-28T07:01:38.782Z,99212.88
2023-01-28T07:04:05.803Z,99217.22
2023-01-28T07:06:33.153Z,99224.13
2023-01-28T07:09:00.176Z,99224.97
2023-01-28T07:11:27.374Z,99232.78
2023-01-28T07:13:54.273Z,99238.81
2023-01-28T07:16:21.493Z,99237.97
2023-01-28T07:18:48.460Z,99240.53
2023-01-28T07:21:15.662Z,99240.56
2023-01-28T07:23:42.567Z,99238.84
2023-01-28T07:26:09.760Z,99247.50
2023-01-28T07:28:36.678Z,99246.66
2023-01-28T07:31:04.105Z,99244.94
2023-01-28T07:33:31.098Z,99250.13
2023-01-28T07:35:58.271Z,99252.75
2023-01-28T07:38:25.110Z,99250.13
2023-01-28T07:40:52.368Z,99251.03
2023-01-28T07:43:19.267Z,99250.19
2023-01-28T07:45:48.577Z,99250.19
2023-01-28T07:48:15.671Z,99247.63
2023-01-28T07:50:43.292Z,99251.94
2023-01-28T07:53:12.047Z,99248.50
2023-01-28T07:55:39.348Z,99245.91
2023-01-28T07:58:08.031Z,99254.53
2023-01-28T08:00:37.209Z,99258.84
2023-01-28T08:03:07.181Z,99251.09
2023-01-28T08:05:46.829Z,99264.94
2023-01-28T08:08:14.859Z,99261.47
2023-01-28T08:10:44.170Z,99266.69
2023-01-28T08:13:11.883Z,99259.78
2023-01-28T08:15:39.423Z,99252.88
2023-01-28T08:18:08.089Z,99252.88
2023-01-28T08:20:36.345Z,99258.06
2023-01-28T08:23:13.137Z,99261.53
2023-01-28T08:25:40.530Z,99252.94
2023-01-28T08:28:08.161Z,99265.03
2023-01-28T08:30:38.207Z,99262.44
2023-01-28T08:33:06.977Z,99262.47
2023-01-28T08:35:34.367Z,99270.25
2023-01-28T08:38:03.118Z,99268.50
2023-01-28T08:40:31.281Z,99262.47
2023-01-28T08:42:58.579Z,99256.41
2023-01-28T08:45:28.155Z,99267.66
2023-01-28T08:47:56.489Z,99268.53
2023-01-28T08:50:25.704Z,99271.09
2023-01-28T08:53:00.202Z,99272.00
2023-01-28T08:55:28.103Z,99276.31
2023-01-28T08:57:58.104Z,99269.38
2023-01-28T09:00:25.702Z,99265.91
2023-01-28T09:02:53.689Z,99269.38
2023-01-28T09:05:22.284Z,99268.50
2023-01-28T09:07:49.963Z,99271.97
2023-01-28T09:10:20.589Z,99275.44
2023-01-28T09:12:48.045Z,99281.47
2023-01-28T09:15:15.472Z,99282.31
2023-01-28T09:17:42.358Z,99279.75
2023-01-28T09:20:10.236Z,99286.66
2023-01-28T09:22:37.238Z,99280.63
2023-01-28T09:25:04.825Z,99282.38
2023-01-28T09:27:32.299Z,99273.72
2023-01-28T09:29:59.585Z,99278.88
2023-01-28T09:32:26.484Z,99284.97
2023-01-28T09:34:53.683Z,99279.75
2023-01-28T09:37:20.501Z,99282.31
2023-01-28T09:39:48.450Z,99275.38
2023-01-28T09:42:26.512Z,99277.13
2023-01-28T09:45:16.674Z,99284.03
2023-01-28T09:47:50.831Z,99275.38
2023-01-28T09:50:27.001Z,99280.56
2023-01-28T09:52:57.622Z,99278.00
2023-01-28T09:55:39.577Z,99282.31
2023-01-28T09:58:13.065Z,99278.84
2023-01-28T10:01:17.557Z,99265.00
2023-01-28T10:04:23.114Z,99277.13
2023-01-28T10:06:56.089Z,99263.22
2023-01-28T10:09:43.756Z,99268.41
2023-01-28T10:12:20.051Z,99264.09
2023-01-28T10:15:08.265Z,99265.84
2023-01-28T10:17:39.400Z,99271.91
2023-01-28T10:20:17.970Z,99277.09
2023-01-28T10:22:55.790Z,99277.09
2023-01-28T10:25:26.153Z,99271.03
2023-01-28T10:27:53.322Z,99262.38
2023-01-28T10:30:28.063Z,99264.06
2023-01-28T10:33:18.115Z,99263.19
2023-01-28T10:35:45.131Z,99259.66
2023-01-28T10:38:19.963Z,99263.97
2023-01-28T10:40:48.241Z,99259.56
2023-01-28T10:43:25.164Z,99260.41
2023-01-28T10:46:10.923Z,99262.97
2023-01-28T10:48:47.935Z,99257.72
2023-01-28T10:51:15.499Z,99254.28
2023-01-28T10:53:45.102Z,99258.63
2023-01-28T10:56:28.517Z,99246.53
2023-01-28T10:59:02.590Z,99251.72
2023-01-28T11:01:45.257Z,99252.59
2023-01-28T11:04:19.192Z,99256.91
2023-01-28T11:06:56.878Z,99247.38
2023-01-28T11:09:31.245Z,99247.41
2023-01-28T11:12:13.063Z,99250.91
2023-01-28T11:14:51.328Z,99244.84
2023-01-28T11:17:20.206Z,99244.84
2023-01-28T11:19:47.345Z,99252.69
2023-01-28T11:22:23.088Z,99244.88
2023-01-28T11:24:50.834Z,99239.63
2023-01-28T11:27:23.110Z,99233.53
2023-01-28T11:29:58.432Z,99232.59
2023-01-28T11:32:27.160Z,99223.88
2023-01-28T11:35:00.505Z,99230.81
2023-01-28T11:37:28.986Z,99230.81
2023-01-28T11:40:03.943Z,99221.25
2023-01-28T11:42:31.555Z,99221.25
2023-01-28T11:44:58.697Z,99222.97
2023-01-28T11:47:31.623Z,99215.09
2023-01-28T11:50:29.904Z,99204.56
2023-01-28T11:53:18.274Z,99206.19
2023-01-28T11:56:03.996Z,99214.91
2023-01-28T11:58:52.113Z,99214.09
2023-01-28T12:01:28.578Z,99218.50
2023-01-28T12:04:10.382Z,99218.59
2023-01-28T12:07:08.162Z,99216.94
2023-01-28T12:09:57.316Z,99213.53
2023-01-28T12:12:53.575Z,99216.13
2023-01-28T12:15:23.140Z,99214.38
2023-01-28T12:17:52.940Z,99216.97
2023-01-28T12:20:34.940Z,99220.47
2023-01-28T12:23:53.284Z,99226.56
2023-01-28T12:26:43.347Z,99225.66
2023-01-28T12:29:34.972Z,99235.16
2023-01-28T12:32:14.265Z,99234.25
2023-01-28T12:35:00.537Z,99242.03
2023-01-28T12:37:36.262Z,99238.56
2023-01-28T12:40:16.155Z,99239.53
2023-01-28T12:42:47.365Z,99235.19
2023-01-28T12:45:41.086Z,99236.91
2023-01-28T12:48:21.899Z,99238.69
2023-01-28T12:50:53.914Z,99237.84
2023-01-28T12:53:29.618Z,99238.69
2023-01-28T12:56:08.444Z,99233.53
2023-01-28T12:58:58.880Z,99233.53
2023-01-28T13:01:39.262Z,99250.88
2023-01-28T13:04:12.405Z,99251.72
2023-01-28T13:06:51.118Z,99251.75
2023-01-28T13:09:20.861Z,99250.88
2023-01-28T13:11:50.971Z,99250.94
2023-01-28T13:14:19.619Z,99246.66
2023-01-28T13:16:46.834Z,99251.84
2023-01-28T13:19:19.805Z,99253.56
2023-01-28T13:21:49.972Z,99257.03
2023-01-28T13:24:16.921Z,99253.56
2023-01-28T13:26:55.934Z,99260.47
2023-01-28T13:29:25.572Z,99256.19
2023-01-28T13:31:55.633Z,99264.00
2023-01-28T13:34:44.372Z,99257.06
2023-01-28T13:37:30.056Z,99258.81
2023-01-28T13:40:14.957Z,99260.53
2023-01-28T13:42:42.337Z,99257.03
2023-01-28T13:45:15.655Z,99257.03
2023-01-28T13:47:50.205Z,99269.19
2023-01-28T13:50:24.761Z,99269.22
2023-01-28T13:53:18.049Z,99271.78
2023-01-28T13:55:47.754Z,99273.56
2023-01-28T13:58:33.356Z,99272.72
2023-01-28T14:01:23.679Z,99273.59
2023-01-28T14:04:35.068Z,99271.88
2023-01-28T14:07:04.617Z,99278.78
2023-01-28T14:09:56.714Z,99286.63
2023-01-28T14:12:39.218Z,99277.06
2023-01-28T14:15:18.515Z,99279.69
2023-01-28T14:18:08.034Z,99286.66
2023-01-28T14:20:56.305Z,99287.50
2023-01-28T14:23:26.756Z,99288.38
2023-01-28T14:26:06.030Z,99290.09
2023-01-28T14:28:41.967Z,99286.66
2023-01-28T14:31:18.438Z,99280.59
2023-01-28T14:33:45.523Z,99290.16
2023-01-28T14:36:13.109Z,99288.41
2023-01-28T14:38:43.620Z,99284.94
2023-01-28T14:41:26.621Z,99297.06
2023-01-28T14:43:56.080Z,99290.13
2023-01-28T14:46:40.678Z,99287.56
2023-01-28T14:49:42.778Z,99283.22
2023-01-28T14:52:38.296Z,99283.22
2023-01-28T14:55:25.341Z,99280.63
2023-01-28T14:58:05.660Z,99279.78
2023-01-28T15:00:34.936Z,99281.50
2023-01-28T15:03:25.017Z,99287.56
2023-01-28T15:06:05.992Z,99292.72
2023-01-28T15:08:33.348Z,99292.75
2023-01-28T15:11:02.194Z,99296.19
2023-01-28T15:13:34.187Z,99301.38
2023-01-28T15:16:01.835Z,99297.03
2023-01-28T15:18:42.607Z,99296.19
2023-01-28T15:21:10.319Z,99292.72
2023-01-28T15:23:41.055Z,99298.78
2023-01-28T15:26:13.534Z,99296.19
2023-01-28T15:28:43.360Z,99305.69
2023-01-28T15:31:28.292Z,99312.63
2023-01-28T15:34:02.714Z,99310.88
2023-01-28T15:36:30.849Z,99311.72
2023-01-28T15:38:58.791Z,99320.34
2023-01-28T15:41:32.902Z,99325.56
2023-01-28T15:44:00.400Z,99322.09
2023-01-28T15:46:27.448Z,99323.81
2023-01-28T15:49:00.986Z,99322.94
2023-01-28T15:51:36.826Z,99329.00
2023-01-28T15:54:10.177Z,99335.03
2023-01-28T15:56:37.447Z,99328.09
2023-01-28T15:59:31.353Z,99329.84
2023-01-28T16:02:20.970Z,99333.25
2023-01-28T16:04:59.350Z,99332.38
2023-01-28T16:07:28.372Z,99331.53
2023-01-28T16:09:57.913Z,99327.19
2023-01-28T16:12:27.043Z,99331.50
2023-01-28T16:15:00.353Z,99338.44
2023-01-28T16:17:30.835Z,99338.44
2023-01-28T16:20:01.367Z,99345.31
2023-01-28T16:22:37.227Z,99340.13
2023-01-28T16:25:26.539Z,99342.72
2023-01-28T16:27:53.597Z,99340.13
2023-01-28T16:30:20.986Z,99333.22
2023-01-28T16:32:47.887Z,99343.59
2023-01-28T16:35:16.687Z,99340.97
2023-01-28T16:37:44.857Z,99346.16
2023-01-28T16:40:14.735Z,99345.28
2023-01-28T16:42:41.890Z,99347.88
2023-01-28T16:45:17.694Z,99344.41
2023-01-28T16:47:45.223Z,99349.59
2023-01-28T16:50:13.951Z,99347.88
2023-01-28T16:52:43.268Z,99350.47
2023-01-28T16:55:16.112Z,99349.59
2023-01-28T16:57:45.254Z,99353.06
2023-01-28T17:00:35.744Z,99353.06
2023-01-28T17:03:02.773Z,99359.13
2023-01-28T17:05:30.217Z,99360.00
2023-01-28T17:07:59.497Z,99362.59
2023-01-28T17:10:26.773Z,99362.56
2023-01-28T17:12:54.588Z,99366.91
2023-01-28T17:15:21.831Z,99367.75
2023-01-28T17:17:49.783Z,99366.03
2023-01-28T17:20:17.503Z,99370.34
2023-01-28T17:22:44.626Z,99361.72
2023-01-28T17:25:11.945Z,99365.16
2023-01-28T17:27:39.039Z,99366.88
2023-01-28T17:30:07.106Z,99360.84
2023-01-28T17:32:34.079Z,99363.44
2023-01-28T17:35:01.339Z,99361.72
2023-01-28T17:37:28.252Z,99363.41
2023-01-28T17:39:55.437Z,99368.63
2023-01-28T17:42:22.384Z,99366.03
2023-01-28T17:44:49.586Z,99363.41
2023-01-28T17:47:16.480Z,99365.16
2023-01-28T17:49:43.681Z,99367.75
2023-01-28T17:52:10.887Z,99375.50
2023-01-28T17:54:38.105Z,99379.84
2023-01-28T17:57:05.146Z,99379.81
2023-01-28T17:59:32.650Z,99382.41
2023-01-28T18:01:59.607Z,99378.94
2023-01-28T18:04:26.945Z,99388.47
2023-01-28T18:06:53.911Z,99388.44
2023-01-28T18:09:21.179Z,99382.38
2023-01-28T18:11:48.155Z,99384.13
2023-01-28T18:14:15.390Z,99386.69
2023-01-28T18:16:42.265Z,99397.06
2023-01-28T18:19:10.478Z,99391.00
2023-01-28T18:21:52.095Z,99401.38
2023-01-28T18:24:25.072Z,99393.59
2023-01-28T18:26:55.552Z,99393.56
2023-01-28T18:29:24.253Z,99386.66
2023-01-28T18:31:56.771Z,99393.56
2023-01-28T18:34:26.696Z,99383.22
2023-01-28T18:36:53.765Z,99393.56
2023-01-28T18:39:21.820Z,99397.91
2023-01-28T18:41:48.682Z,99396.16
2023-01-28T18:44:16.446Z,99398.75
2023-01-28T18:46:43.564Z,99391.00
2023-01-28T18:49:10.945Z,99398.75
2023-01-28T18:51:38.765Z,99397.91
2023-01-28T18:54:10.519Z,99398.78
2023-01-28T18:56:39.087Z,99396.19
2023-01-28T18:59:07.632Z,99394.44
2023-01-28T19:01:35.068Z,99396.16
2023-01-28T19:04:02.861Z,99400.50
2023-01-28T19:06:30.744Z,99392.72
2023-01-28T19:09:05.958Z,99393.56
2023-01-28T19:11:33.757Z,99399.63
2023-01-28T19:14:01.745Z,99403.97
2023-01-28T19:16:29.337Z,99408.25
2023-01-28T19:18:59.245Z,99399.63
2023-01-28T19:21:27.988Z,99413.47
2023-01-28T19:23:56.586Z,99413.41
2023-01-28T19:26:24.489Z,99415.13
2023-01-28T19:28:52.552Z,99414.31
2023-01-28T19:31:21.448Z,99411.72
2023-01-28T19:33:49.593Z,99415.19
2023-01-28T19:36:16.585Z,99416.03
2023-01-28T19:38:43.927Z,99416.91
2023-01-28T19:41:13.644Z,99418.63
2023-01-28T19:43:40.855Z,99417.78
2023-01-28T19:46:07.891Z,99416.03
2023-01-28T19:48:35.105Z,99413.47
2023-01-28T19:51:09.170Z,99423.84
2023-01-28T19:53:37.359Z,99422.94
2023-01-28T19:56:07.747Z,99416.03
2023-01-28T19:58:37.219Z,99422.06
2023-01-28T20:01:09.842Z,99424.66
2023-01-28T20:03:37.798Z,99417.75
2023-01-28T20:06:07.457Z,99416.94
2023-01-28T20:08:34.804Z,99412.63
2023-01-28T20:11:09.800Z,99417.78
2023-01-28T20:13:38.787Z,99415.19
2023-01-28T20:16:07.892Z,99422.97
2023-01-28T20:18:35.599Z,99423.84
2023-01-28T20:21:05.032Z,99424.69
2023-01-28T20:23:32.957Z,99428.16
2023-01-28T20:26:01.209Z,99422.09
2023-01-28T20:28:28.531Z,99422.09
2023-01-28T20:30:56.765Z,99429.88
2023-01-28T20:33:24.160Z,99428.16
2023-01-28T20:35:51.017Z,99425.56
2023-01-28T20:38:18.169Z,99419.53
2023-01-28T20:40:46.180Z,99422.13
2023-01-28T20:43:13.429Z,99427.31
2023-01-28T20:45:40.322Z,99427.31
2023-01-28T20:48:07.681Z,99425.63
2023-01-28T20:50:35.508Z,99431.63
2023-01-28T20:53:02.834Z,99432.50
2023-01-28T20:55:30.175Z,99429.06
2023-01-28T20:57:57.283Z,99439.41
2023-01-28T21:00:24.333Z,99435.97
2023-01-28T21:02:51.577Z,99442.03
2023-01-28T21:05:18.479Z,99447.19
2023-01-28T21:07:45.703Z,99451.53
2023-01-28T21:10:12.744Z,99444.59
2023-01-28T21:12:39.937Z,99445.44
2023-01-28T21:15:08.140Z,99440.28
2023-01-28T21:17:35.397Z,99436.81
2023-01-28T21:20:02.451Z,99448.91
2023-01-28T21:22:29.628Z,99444.59
2023-01-28T21:24:56.487Z,99445.44
2023-01-28T21:27:23.699Z,99448.03
2023-01-28T21:29:50.638Z,99452.38
2023-01-28T21:32:18.052Z,99446.28
2023-01-28T21:34:45.005Z,99448.91
2023-01-28T21:37:12.252Z,99444.59
2023-01-28T21:39:39.374Z,99456.66
2023-01-28T21:42:06.638Z,99447.16
2023-01-28T21:44:33.505Z,99443.72
2023-01-28T21:47:00.791Z,99448.03
2023-01-28T21:49:27.758Z,99449.75
2023-01-28T21:51:54.957Z,99443.72
2023-01-28T21:54:21.841Z,99442.84
2023-01-28T21:56:50.540Z,99444.53
2023-01-28T21:59:28.940Z,99444.53
2023-01-28T22:02:05.312Z,99442.81
2023-01-28T22:04:37.169Z,99434.19
2023-01-28T22:07:07.131Z,99448.00
2023-01-28T22:09:35.189Z,99453.16
2023-01-28T22:12:03.820Z,99447.97
2023-01-28T22:14:30.791Z,99452.28
2023-01-28T22:16:58.074Z,99452.28
2023-01-28T22:19:25.116Z,99451.38
2023-01-28T22:21:52.433Z,99453.97
2023-01-28T22:24:22.559Z,99447.91
2023-01-28T22:26:50.364Z,99435.81
2023-01-28T22:29:18.981Z,99441.84
2023-01-28T22:31:48.147Z,99446.19
2023-01-28T22:34:16.049Z,99444.44
2023-01-28T22:36:43.924Z,99439.22
2023-01-28T22:39:13.813Z,99427.16
2023-01-28T22:41:42.722Z,99434.06
2023-01-28T22:44:10.245Z,99436.66
2023-01-28T22:46:37.859Z,99435.78
2023-01-28T22:49:05.678Z,99439.25
2023-01-28T22:51:35.511Z,99435.78
2023-01-28T22:54:03.189Z,99437.53
2023-01-28T22:56:31.314Z,99435.78
2023-01-28T22:59:03.009Z,99435.78
2023-01-28T23:01:30.993Z,99434.94
2023-01-28T23:03:58.530Z,99434.91
2023-01-28T23:06:27.565Z,99442.69
2023-01-28T23:08:54.717Z,99438.38
2023-01-28T23:11:28.656Z,99433.19
2023-01-28T23:14:20.307Z,99436.63
2023-01-28T23:17:07.012Z,99434.03
2023-01-28T23:19:53.010Z,99429.69
2023-01-28T23:22:42.548Z,99446.09
2023-01-28T23:25:10.317Z,99430.53
2023-01-28T23:27:37.912Z,99437.47
2023-01-28T23:30:10.222Z,99435.75
2023-01-28T23:32:40.304Z,99435.75
2023-01-28T23:35:08.913Z,99434.03
2023-01-28T23:37:36.323Z,99431.44
2023-01-28T23:40:04.602Z,99434.91
2023-01-28T23:42:31.849Z,99434.91
2023-01-28T23:44:58.749Z,99434.91
2023-01-28T23:47:26.215Z,99441.81
2023-01-28T23:49:53.081Z,99428.88
2023-01-28T23:52:20.257Z,99439.25
2023-01-28T23:54:47.132Z,99433.19
2023-01-28T23:57:14.330Z,99444.41
2023-01-28T23:59:41.369Z,99437.50
